createdAt,value
2018-04-24T00:01:41.881Z,11.00
2018-04-24T00:04:10.144Z,11.00
2018-04-24T00:06:38.451Z,11.00
2018-04-24T00:09:06.739Z,11.00
2018-04-24T00:11:35.003Z,10.90
2018-04-24T00:14:03.279Z,10.80
2018-04-24T00:16:31.563Z,10.80
2018-04-24T00:18:59.826Z,10.70
2018-04-24T00:21:28.083Z,10.70
2018-04-24T00:23:56.380Z,10.70
2018-04-24T00:26:24.635Z,10.70
2018-04-24T00:28:53.677Z,10.60
2018-04-24T00:31:21.934Z,10.60
2018-04-24T00:33:50.182Z,10.60
2018-04-24T00:36:18.471Z,10.60
2018-04-24T00:38:46.735Z,10.70
2018-04-24T00:41:15.027Z,10.70
2018-04-24T00:43:43.303Z,10.60
2018-04-24T00:46:11.936Z,10.60
2018-04-24T00:48:40.275Z,10.50
2018-04-24T00:51:08.540Z,10.50
2018-04-24T00:53:40.595Z,10.30
2018-04-24T00:56:08.876Z,10.30
2018-04-24T00:58:37.132Z,10.30
2018-04-24T01:01:05.400Z,10.30
2018-04-24T01:03:33.655Z,10.30
2018-04-24T01:06:02.883Z,10.30
2018-04-24T01:08:31.139Z,10.30
2018-04-24T01:11:00.276Z,10.40
2018-04-24T01:13:28.546Z,10.40
2018-04-24T01:15:56.826Z,10.50
2018-04-24T01:18:25.087Z,10.50
2018-04-24T01:20:53.379Z,10.60
2018-04-24T01:23:21.642Z,10.60
2018-04-24T01:25:49.895Z,10.60
2018-04-24T01:28:18.157Z,10.60
2018-04-24T01:30:47.189Z,10.60
2018-04-24T01:33:15.462Z,10.60
2018-04-24T01:35:43.756Z,10.50
2018-04-24T01:38:12.031Z,10.50
2018-04-24T01:40:40.302Z,10.40
2018-04-24T01:43:08.578Z,10.40
2018-04-24T01:45:36.826Z,10.40
2018-04-24T01:48:05.135Z,10.40
2018-04-24T01:50:33.411Z,10.40
2018-04-24T01:53:01.671Z,10.40
2018-04-24T01:55:29.915Z,10.40
2018-04-24T01:57:58.184Z,10.30
2018-04-24T02:00:27.231Z,10.30
2018-04-24T02:02:55.606Z,10.30
2018-04-24T02:05:23.846Z,10.30
2018-04-24T02:07:52.143Z,10.30
2018-04-24T02:10:20.405Z,10.30
2018-04-24T02:12:48.695Z,10.20
2018-04-24T02:15:16.951Z,10.20
2018-04-24T02:17:45.211Z,10.20
2018-04-24T02:20:14.247Z,10.10
2018-04-24T02:22:42.694Z,10.10
2018-04-24T02:25:10.899Z,10.10
2018-04-24T02:27:39.175Z,10.10
2018-04-24T02:30:07.427Z,10.10
2018-04-24T02:32:35.677Z,10.00
2018-04-24T02:35:04.710Z,9.90
2018-04-24T02:37:32.950Z,9.90
2018-04-24T02:40:01.973Z,9.90
2018-04-24T02:42:30.226Z,9.90
2018-04-24T02:44:59.258Z,9.90
2018-04-24T02:47:27.527Z,9.90
2018-04-24T02:49:55.778Z,9.90
2018-04-24T02:52:24.024Z,9.90
2018-04-24T02:54:52.278Z,9.80
2018-04-24T02:57:20.531Z,9.80
2018-04-24T02:59:48.784Z,9.80
2018-04-24T03:02:17.083Z,9.80
2018-04-24T03:04:45.359Z,9.80
2018-04-24T03:07:13.630Z,9.80
2018-04-24T03:09:41.884Z,9.80
2018-04-24T03:12:10.123Z,9.70
2018-04-24T03:14:38.372Z,9.70
2018-04-24T03:17:06.615Z,9.70
2018-04-24T03:19:34.902Z,9.70
2018-04-24T03:22:03.174Z,9.70
2018-04-24T03:24:31.467Z,9.60
2018-04-24T03:26:59.707Z,9.60
2018-04-24T03:29:27.947Z,9.60
2018-04-24T03:31:56.187Z,9.60
2018-04-24T03:34:24.454Z,9.60
2018-04-24T03:36:52.734Z,9.60
2018-04-24T03:39:21.016Z,9.50
2018-04-24T03:41:49.259Z,9.40
2018-04-24T03:44:17.506Z,9.40
2018-04-24T03:46:47.265Z,9.30
2018-04-24T03:49:16.214Z,9.30
2018-04-24T03:51:45.219Z,9.30
2018-04-24T03:54:14.251Z,9.30
2018-04-24T03:56:42.497Z,9.30
2018-04-24T03:59:10.763Z,9.40
2018-04-24T04:01:39.778Z,9.40
2018-04-24T04:04:08.018Z,9.40
2018-04-24T04:06:37.058Z,9.50
2018-04-24T04:09:06.131Z,9.50
2018-04-24T04:11:34.382Z,9.50
2018-04-24T04:14:03.396Z,9.60
2018-04-24T04:16:31.694Z,9.60
2018-04-24T04:19:11.739Z,9.60
2018-04-24T04:21:52.070Z,9.70
2018-04-24T04:24:38.811Z,9.70
2018-04-24T04:27:07.063Z,9.70
2018-04-24T04:29:35.375Z,9.60
2018-04-24T04:32:03.622Z,9.60
2018-04-24T04:34:31.863Z,9.60
2018-04-24T04:37:00.120Z,9.60
2018-04-24T04:39:28.362Z,9.60
2018-04-24T04:41:56.634Z,9.60
2018-04-24T04:44:24.914Z,9.60
2018-04-24T04:46:53.179Z,9.60
2018-04-24T04:49:21.419Z,9.60
2018-04-24T04:51:50.950Z,9.70
2018-04-24T04:54:19.186Z,9.70
2018-04-24T04:56:47.440Z,9.80
2018-04-24T04:59:15.683Z,10.00
2018-04-24T05:01:43.931Z,10.20
2018-04-24T05:04:12.950Z,10.60
2018-04-24T05:06:41.204Z,10.60
2018-04-24T05:09:10.224Z,11.00
2018-04-24T05:11:38.483Z,10.90
2018-04-24T05:14:06.779Z,11.20
2018-04-24T05:16:35.042Z,11.40
2018-04-24T05:19:03.308Z,11.70
2018-04-24T05:21:31.567Z,12.20
2018-04-24T05:23:59.894Z,13.10
2018-04-24T05:26:28.169Z,14.30
2018-04-24T05:28:57.155Z,16.90
2018-04-24T05:31:25.436Z,16.90
2018-04-24T05:33:53.751Z,18.20
2018-04-24T05:36:22.894Z,18.80
2018-04-24T05:38:51.151Z,19.60
2018-04-24T05:41:19.396Z,20.10
2018-04-24T05:43:47.651Z,20.20
2018-04-24T05:46:15.899Z,19.90
2018-04-24T05:48:44.154Z,19.80
2018-04-24T05:51:12.405Z,19.20
2018-04-24T05:53:41.435Z,17.50
2018-04-24T05:56:09.681Z,17.40
2018-04-24T05:58:38.699Z,16.80
2018-04-24T06:01:07.774Z,16.80
2018-04-24T06:03:36.910Z,17.20
2018-04-24T06:06:05.170Z,17.20
2018-04-24T06:08:33.495Z,17.20
2018-04-24T06:11:02.657Z,17.00
2018-04-24T06:13:30.934Z,17.10
2018-04-24T06:15:59.252Z,17.80
2018-04-24T06:18:27.579Z,18.50
2018-04-24T06:20:55.817Z,19.40
2018-04-24T06:23:24.853Z,20.10
2018-04-24T06:25:53.099Z,20.10
2018-04-24T06:28:21.400Z,20.00
2018-04-24T06:30:49.670Z,19.50
2018-04-24T06:33:17.923Z,19.10
2018-04-24T06:35:47.150Z,19.00
2018-04-24T06:38:15.399Z,19.00
2018-04-24T06:40:43.747Z,19.30
2018-04-24T06:43:12.078Z,19.40
2018-04-24T06:45:40.333Z,19.50
2018-04-24T06:48:08.626Z,19.70
2018-04-24T06:50:36.933Z,19.90
2018-04-24T06:53:05.176Z,20.00
2018-04-24T06:55:33.439Z,20.50
2018-04-24T06:58:02.450Z,20.70
2018-04-24T07:00:30.797Z,20.60
2018-04-24T07:02:59.049Z,20.40
2018-04-24T07:05:27.283Z,20.10
2018-04-24T07:07:55.528Z,19.80
2018-04-24T07:10:24.551Z,19.00
2018-04-24T07:12:52.824Z,19.00
2018-04-24T07:15:21.103Z,18.90
2018-04-24T07:17:49.337Z,18.60
2018-04-24T07:20:18.354Z,18.40
2018-04-24T07:22:46.675Z,18.40
2018-04-24T07:25:14.831Z,18.50
2018-04-24T07:27:43.098Z,18.40
2018-04-24T07:30:11.366Z,18.50
2018-04-24T07:32:39.643Z,18.90
2018-04-24T07:35:07.922Z,19.40
2018-04-24T07:37:36.151Z,19.70
2018-04-24T07:40:05.161Z,19.50
2018-04-24T07:42:33.392Z,19.50
2018-04-24T07:45:01.682Z,19.60
2018-04-24T07:47:29.899Z,19.50
2018-04-24T07:49:58.191Z,19.80
2018-04-24T07:52:26.430Z,19.80
2018-04-24T07:54:55.455Z,19.90
2018-04-24T07:57:23.726Z,19.90
2018-04-24T07:59:51.969Z,20.20
2018-04-24T08:02:20.967Z,20.40
2018-04-24T08:04:49.994Z,20.60
2018-04-24T08:07:19.135Z,20.60
2018-04-24T08:09:47.354Z,21.00
2018-04-24T08:12:15.586Z,21.10
2018-04-24T08:14:43.910Z,20.90
2018-04-24T08:17:12.147Z,20.50
2018-04-24T08:19:41.170Z,20.20
2018-04-24T08:22:09.403Z,20.20
2018-04-24T08:24:37.638Z,19.80
2018-04-24T08:27:05.881Z,19.30
2018-04-24T08:29:34.205Z,19.00
2018-04-24T08:32:02.463Z,18.70
2018-04-24T08:34:30.739Z,18.50
2018-04-24T08:36:58.978Z,18.20
2018-04-24T08:39:27.981Z,18.40
2018-04-24T08:41:56.276Z,18.40
2018-04-24T08:44:24.542Z,18.40
2018-04-24T08:46:52.790Z,18.20
2018-04-24T08:49:21.803Z,17.60
2018-04-24T08:51:50.055Z,17.60
2018-04-24T08:54:19.059Z,17.30
2018-04-24T08:56:48.058Z,17.20
2018-04-24T08:59:16.361Z,17.20
2018-04-24T09:01:44.598Z,17.10
2018-04-24T09:04:13.600Z,17.10
2018-04-24T09:06:41.898Z,17.10
2018-04-24T09:09:10.133Z,17.00
2018-04-24T09:11:39.163Z,17.00
2018-04-24T09:14:07.515Z,16.90
2018-04-24T09:16:35.710Z,17.00
2018-04-24T09:19:03.994Z,16.90
2018-04-24T09:21:32.238Z,16.80
2018-04-24T09:24:01.260Z,16.40
2018-04-24T09:26:29.496Z,16.40
2018-04-24T09:28:58.499Z,16.30
2018-04-24T09:31:33.307Z,16.30
2018-04-24T09:34:02.303Z,16.40
2018-04-24T09:36:31.319Z,16.30
2018-04-24T09:38:59.611Z,16.30
2018-04-24T09:41:27.795Z,16.40
2018-04-24T09:43:56.093Z,16.40
2018-04-24T09:46:25.049Z,16.60
2018-04-24T09:48:53.338Z,16.60
2018-04-24T09:51:24.320Z,16.80
2018-04-24T09:53:52.491Z,16.80
2018-04-24T09:56:20.767Z,16.80
2018-04-24T09:58:49.099Z,16.80
2018-04-24T10:01:18.151Z,17.00
2018-04-24T10:03:47.186Z,17.10
2018-04-24T10:06:15.462Z,17.10
2018-04-24T10:08:43.730Z,17.00
2018-04-24T10:11:11.970Z,16.80
2018-04-24T10:13:41.076Z,16.80
2018-04-24T10:16:09.976Z,16.70
2018-04-24T10:18:38.266Z,16.70
2018-04-24T10:21:06.550Z,16.60
2018-04-24T10:23:34.822Z,16.60
2018-04-24T10:26:03.098Z,16.40
2018-04-24T10:28:31.375Z,16.40
2018-04-24T10:30:59.655Z,16.40
2018-04-24T10:33:27.983Z,16.50
2018-04-24T10:35:56.224Z,16.40
2018-04-24T10:38:24.475Z,16.40
2018-04-24T10:40:52.754Z,16.30
2018-04-24T10:43:21.001Z,16.30
2018-04-24T10:45:50.002Z,16.30
2018-04-24T10:48:18.250Z,16.30
2018-04-24T10:50:47.299Z,16.50
2018-04-24T10:53:15.546Z,16.50
2018-04-24T10:55:43.778Z,16.60
2018-04-24T10:58:12.028Z,16.70
2018-04-24T11:00:40.272Z,16.70
2018-04-24T11:03:08.580Z,16.70
2018-04-24T11:05:36.819Z,16.60
2018-04-24T11:08:05.071Z,16.50
2018-04-24T11:10:33.306Z,16.50
2018-04-24T11:13:01.550Z,16.30
2018-04-24T11:15:29.787Z,16.20
2018-04-24T11:17:58.031Z,16.20
2018-04-24T11:20:26.267Z,16.30
2018-04-24T11:22:54.510Z,16.10
2018-04-24T11:25:22.758Z,15.90
2018-04-24T11:27:51.003Z,16.00
2018-04-24T11:30:19.267Z,16.10
2018-04-24T11:32:48.265Z,16.30
2018-04-24T11:35:16.707Z,16.30
2018-04-24T11:37:45.350Z,16.30
2018-04-24T11:40:13.595Z,16.30
2018-04-24T11:42:41.843Z,16.40
2018-04-24T11:45:10.988Z,16.30
2018-04-24T11:47:39.148Z,16.20
2018-04-24T11:50:07.395Z,16.20
2018-04-24T11:52:36.410Z,15.80
2018-04-24T11:55:04.717Z,15.80
2018-04-24T11:57:32.956Z,15.70
2018-04-24T12:00:01.979Z,15.60
2018-04-24T12:02:30.240Z,15.60
2018-04-24T12:04:59.255Z,15.70
2018-04-24T12:07:27.498Z,15.60
2018-04-24T12:09:56.545Z,15.90
2018-04-24T12:12:24.787Z,15.90
2018-04-24T12:14:53.071Z,16.20
2018-04-24T12:17:21.312Z,16.40
2018-04-24T12:19:50.323Z,16.90
2018-04-24T12:22:18.607Z,16.90
2018-04-24T12:24:46.882Z,17.30
2018-04-24T12:27:15.120Z,17.60
2018-04-24T12:29:43.354Z,17.70
2018-04-24T12:32:11.589Z,17.80
2018-04-24T12:34:39.924Z,17.80
2018-04-24T12:37:08.269Z,17.80
2018-04-24T12:39:36.547Z,17.90
2018-04-24T12:42:04.780Z,17.90
2018-04-24T12:44:33.784Z,18.40
2018-04-24T12:47:02.018Z,18.40
2018-04-24T12:49:30.262Z,18.60
2018-04-24T12:51:58.499Z,18.70
2018-04-24T12:54:27.558Z,18.80
2018-04-24T12:56:55.787Z,18.80
2018-04-24T12:59:24.027Z,19.00
2018-04-24T13:01:53.065Z,19.30
2018-04-24T13:04:21.907Z,19.30
2018-04-24T13:06:50.122Z,19.20
2018-04-24T13:09:18.363Z,19.20
2018-04-24T13:11:47.400Z,19.20
2018-04-24T13:14:16.026Z,19.10
2018-04-24T13:16:44.250Z,19.20
2018-04-24T13:19:13.382Z,19.20
2018-04-24T13:21:41.629Z,19.20
2018-04-24T13:24:09.868Z,19.30
2018-04-24T13:26:39.001Z,19.50
2018-04-24T13:29:07.232Z,19.50
2018-04-24T13:31:36.272Z,19.60
2018-04-24T13:34:04.508Z,19.60
2018-04-24T13:36:33.514Z,19.50
2018-04-24T13:39:01.803Z,19.40
2018-04-24T13:41:30.090Z,19.60
2018-04-24T13:43:58.331Z,19.70
2018-04-24T13:46:26.634Z,19.90
2018-04-24T13:48:54.987Z,19.70
2018-04-24T13:51:23.187Z,19.40
2018-04-24T13:53:51.418Z,19.40
2018-04-24T13:56:20.427Z,19.60
2018-04-24T13:58:48.775Z,19.60
2018-04-24T14:01:16.992Z,19.60
2018-04-24T14:03:45.224Z,19.50
2018-04-24T14:06:15.042Z,19.40
2018-04-24T14:08:43.239Z,19.40
2018-04-24T14:11:11.491Z,19.20
2018-04-24T14:13:39.723Z,19.00
2018-04-24T14:16:08.086Z,18.90
2018-04-24T14:18:36.356Z,18.90
2018-04-24T14:21:04.591Z,19.00
2018-04-24T14:23:32.859Z,19.10
2018-04-24T14:26:01.086Z,19.30
2018-04-24T14:28:29.359Z,19.30
2018-04-24T14:30:57.643Z,19.40
2018-04-24T14:33:25.888Z,19.50
2018-04-24T14:35:54.909Z,19.40
2018-04-24T14:38:23.343Z,19.40
2018-04-24T14:40:51.667Z,19.30
2018-04-24T14:43:19.911Z,19.20
2018-04-24T14:45:48.911Z,19.20
2018-04-24T14:48:22.075Z,19.20
2018-04-24T14:50:50.399Z,19.10
2018-04-24T14:53:18.993Z,19.20
2018-04-24T14:55:47.223Z,19.30
2018-04-24T14:58:16.283Z,19.00
2018-04-24T15:00:46.070Z,19.00
2018-04-24T15:03:14.311Z,18.70
2018-04-24T15:05:43.330Z,18.50
2018-04-24T15:08:11.575Z,18.50
2018-04-24T15:10:40.613Z,18.50
2018-04-24T15:13:08.878Z,18.40
2018-04-24T15:15:37.124Z,18.40
2018-04-24T15:18:06.171Z,18.40
2018-04-24T15:20:35.433Z,18.30
2018-04-24T15:23:03.618Z,18.40
2018-04-24T15:25:31.862Z,18.30
2018-04-24T15:28:00.871Z,18.40
2018-04-24T15:30:29.104Z,18.40
2018-04-24T15:32:57.442Z,18.30
2018-04-24T15:35:25.679Z,18.30
2018-04-24T15:37:54.795Z,18.20
2018-04-24T15:40:23.093Z,18.20
2018-04-24T15:42:51.333Z,18.10
2018-04-24T15:45:20.354Z,17.90
2018-04-24T15:47:48.776Z,17.90
2018-04-24T15:50:17.008Z,17.80
2018-04-24T15:52:45.247Z,17.80
2018-04-24T15:55:14.282Z,17.80
2018-04-24T15:57:43.308Z,17.80
2018-04-24T16:00:12.331Z,17.70
2018-04-24T16:02:40.575Z,17.70
2018-04-24T16:05:08.815Z,17.60
2018-04-24T16:07:37.079Z,17.60
2018-04-24T16:10:05.350Z,17.50
2018-04-24T16:12:33.683Z,17.40
2018-04-24T16:15:01.910Z,17.40
2018-04-24T16:17:30.178Z,17.40
2018-04-24T16:19:58.455Z,17.30
2018-04-24T16:22:26.739Z,17.20
2018-04-24T16:24:55.632Z,17.10
2018-04-24T16:27:23.927Z,17.10
2018-04-24T16:29:52.278Z,17.10
2018-04-24T16:32:20.435Z,17.00
2018-04-24T16:34:48.764Z,16.90
2018-04-24T16:37:17.725Z,16.90
2018-04-24T16:39:45.979Z,16.80
2018-04-24T16:42:14.275Z,16.70
2018-04-24T16:44:42.528Z,16.60
2018-04-24T16:47:10.777Z,16.50
2018-04-24T16:49:39.830Z,16.40
2018-04-24T16:52:08.075Z,16.40
2018-04-24T16:54:36.335Z,16.30
2018-04-24T16:57:04.644Z,16.30
2018-04-24T16:59:32.891Z,16.30
2018-04-24T17:02:01.143Z,16.30
2018-04-24T17:04:30.167Z,16.20
2018-04-24T17:06:58.432Z,16.20
2018-04-24T17:09:27.450Z,16.00
2018-04-24T17:11:55.737Z,16.00
2018-04-24T17:14:23.974Z,15.90
2018-04-24T17:16:52.283Z,15.90
2018-04-24T17:19:20.557Z,15.80
2018-04-24T17:21:48.831Z,15.80
2018-04-24T17:24:17.083Z,15.70
2018-04-24T17:26:45.462Z,15.60
2018-04-24T17:29:13.630Z,15.60
2018-04-24T17:31:41.930Z,15.50
2018-04-24T17:34:10.215Z,15.40
2018-04-24T17:36:38.483Z,15.40
2018-04-24T17:39:06.739Z,15.40
2018-04-24T17:41:35.027Z,15.30
2018-04-24T17:44:03.287Z,15.30
2018-04-24T17:46:31.585Z,15.20
2018-04-24T17:48:59.859Z,15.20
2018-04-24T17:51:28.115Z,15.20
2018-04-24T17:53:56.376Z,15.20
2018-04-24T17:56:24.635Z,15.10
2018-04-24T17:58:53.667Z,15.10
2018-04-24T18:01:22.306Z,15.10
2018-04-24T18:03:50.640Z,15.00
2018-04-24T18:06:18.884Z,15.00
2018-04-24T18:08:47.195Z,14.90
2018-04-24T18:11:16.382Z,14.90
2018-04-24T18:13:45.363Z,14.80
2018-04-24T18:16:13.646Z,14.80
2018-04-24T18:18:41.899Z,14.80
2018-04-24T18:21:10.167Z,14.70
2018-04-24T18:23:39.183Z,14.50
2018-04-24T18:26:07.435Z,14.50
2018-04-24T18:28:36.457Z,14.40
2018-04-24T18:31:04.726Z,14.30
2018-04-24T18:33:33.015Z,14.20
2018-04-24T18:36:01.282Z,14.20
2018-04-24T18:38:29.530Z,14.10
2018-04-24T18:40:58.551Z,14.00
2018-04-24T18:43:26.799Z,13.90
2018-04-24T18:45:55.819Z,13.70
2018-04-24T18:48:24.107Z,13.70
2018-04-24T18:50:52.491Z,13.60
2018-04-24T18:53:20.739Z,13.50
2018-04-24T18:55:49.039Z,13.40
2018-04-24T18:58:17.299Z,13.30
2018-04-24T19:00:45.587Z,13.20
2018-04-24T19:03:13.851Z,13.10
2018-04-24T19:05:42.182Z,13.00
2018-04-24T19:08:10.819Z,13.00
2018-04-24T19:10:39.161Z,12.90
2018-04-24T19:13:07.397Z,12.80
2018-04-24T19:15:35.626Z,12.70
2018-04-24T19:18:03.883Z,12.70
2018-04-24T19:20:32.191Z,12.60
2018-04-24T19:23:00.460Z,12.50
2018-04-24T19:25:34.458Z,12.50
2018-04-24T19:28:02.702Z,12.50
2018-04-24T19:30:31.717Z,12.40
2018-04-24T19:32:59.972Z,12.40
2018-04-24T19:35:29.015Z,12.30
2018-04-24T19:37:57.293Z,12.30
2018-04-24T19:40:31.239Z,12.30
2018-04-24T19:42:59.575Z,12.20
2018-04-24T19:45:27.832Z,12.20
2018-04-24T19:47:56.122Z,12.20
2018-04-24T19:50:24.370Z,12.20
2018-04-24T19:52:52.676Z,12.10
2018-04-24T19:55:25.811Z,12.10
2018-04-24T19:57:54.140Z,12.10
2018-04-24T20:00:22.411Z,12.00
2018-04-24T20:02:50.735Z,12.10
2018-04-24T20:05:18.999Z,12.10
2018-04-24T20:07:47.665Z,12.10
2018-04-24T20:10:15.920Z,12.10
2018-04-24T20:12:44.163Z,12.20
2018-04-24T20:15:13.295Z,12.30
2018-04-24T20:17:47.428Z,12.30
2018-04-24T20:20:15.781Z,12.40
2018-04-24T20:22:44.059Z,12.40
2018-04-24T20:25:12.383Z,12.50
2018-04-24T20:27:40.725Z,12.50
2018-04-24T20:30:08.984Z,12.40
2018-04-24T20:32:37.268Z,12.30
2018-04-24T20:35:05.535Z,12.30
2018-04-24T20:37:33.861Z,12.20
2018-04-24T20:40:02.083Z,12.10
2018-04-24T20:42:30.339Z,12.10
2018-04-24T20:44:58.597Z,12.10
2018-04-24T20:47:26.960Z,12.20
2018-04-24T20:49:56.110Z,12.30
2018-04-24T20:52:24.362Z,12.40
2018-04-24T20:54:52.662Z,12.50
2018-04-24T20:57:20.918Z,12.60
2018-04-24T20:59:49.220Z,12.70
2018-04-24T21:02:18.302Z,12.70
2018-04-24T21:04:46.578Z,12.70
2018-04-24T21:07:14.847Z,12.70
2018-04-24T21:09:43.130Z,12.70
2018-04-24T21:12:11.386Z,12.70
2018-04-24T21:14:39.639Z,12.70
2018-04-24T21:17:08.785Z,12.80
2018-04-24T21:19:37.153Z,12.80
2018-04-24T21:22:06.127Z,12.80
2018-04-24T21:24:34.382Z,12.80
2018-04-24T21:27:03.404Z,12.80
2018-04-24T21:29:31.687Z,12.70
2018-04-24T21:31:59.962Z,12.80
2018-04-24T21:34:28.223Z,12.70
2018-04-24T21:36:56.523Z,12.70
2018-04-24T21:39:24.776Z,12.70
2018-04-24T21:41:53.728Z,12.70
2018-04-24T21:44:22.394Z,12.70
2018-04-24T21:46:50.643Z,12.70
2018-04-24T21:49:18.899Z,12.70
2018-04-24T21:51:47.140Z,12.60
2018-04-24T21:54:15.475Z,12.50
2018-04-24T21:56:43.727Z,12.40
2018-04-24T21:59:12.071Z,12.40
2018-04-24T22:01:40.443Z,12.40
2018-04-24T22:04:08.671Z,12.30
2018-04-24T22:06:36.955Z,12.30
2018-04-24T22:09:06.003Z,12.40
2018-04-24T22:11:35.019Z,12.40
2018-04-24T22:14:04.102Z,12.40
2018-04-24T22:16:32.367Z,12.40
2018-04-24T22:19:01.387Z,12.50
2018-04-24T22:21:29.647Z,12.40
2018-04-24T22:23:58.663Z,12.50
2018-04-24T22:26:26.923Z,12.50
2018-04-24T22:28:55.183Z,12.50
2018-04-24T22:31:24.583Z,12.50
2018-04-24T22:33:53.599Z,12.60
2018-04-24T22:36:21.895Z,12.60
2018-04-24T22:38:50.142Z,12.60
2018-04-24T22:41:19.850Z,12.60
2018-04-24T22:43:48.105Z,12.60
2018-04-24T22:46:17.146Z,12.60
2018-04-24T22:48:45.415Z,12.50
2018-04-24T22:51:13.699Z,12.60
2018-04-24T22:53:41.948Z,12.60
2018-04-24T22:56:10.287Z,12.60
2018-04-24T22:58:39.223Z,12.50
2018-04-24T23:01:07.480Z,12.50
2018-04-24T23:03:36.511Z,12.30
2018-04-24T23:06:04.899Z,12.30
2018-04-24T23:08:33.262Z,12.20
2018-04-24T23:11:13.449Z,12.10
2018-04-24T23:13:59.675Z,12.10
2018-04-24T23:16:45.958Z,12.10
2018-04-24T23:19:32.216Z,12.00
2018-04-24T23:22:06.635Z,12.00
2018-04-24T23:24:34.903Z,11.90
2018-04-24T23:27:03.156Z,12.00
2018-04-24T23:29:31.455Z,12.00
2018-04-24T23:31:59.718Z,12.10
2018-04-24T23:34:27.961Z,12.10
2018-04-24T23:36:56.983Z,12.30
2018-04-24T23:39:25.649Z,12.30
2018-04-24T23:41:54.743Z,12.40
2018-04-24T23:44:22.998Z,12.40
2018-04-24T23:46:52.054Z,12.50
2018-04-24T23:49:20.315Z,12.50
2018-04-24T23:51:48.563Z,12.50
2018-04-24T23:54:16.876Z,12.60
2018-04-24T23:56:45.148Z,12.70
2018-04-24T23:59:13.423Z,12.70
